Oklahoma City, Oklahoma
Current Conditions -  °F | °C
As of 6:52 AM on Thursday 30 Oct 2014 (Local Time) from KOKC Reporting Station
Clear Clear  
Wind Chill: 44°   Ceiling: Unl
Heat Index: 47°   Visibility: 10mi
Dew Point: 39°   Wind: 7mph
Humidity: 74%   Direction: 180°S
Pressure: 30.11"   Gusts: NA
Location:  35.47°N, 97.52°W
Report Text: KOKC 301152Z 18006KT 10SM CLR 08/04 A3011 RMK AO2 SLP191 T00830039 10100 20078 53002
Loading
Personal Weather Stations






























Interactive Weather Map
Tropical Storm Tracking
New forecast layout! Learn more

10-Day Weather Forecast

Advertisements
Track Severe Weather on mobile